Logo AVAMET
Benvolgut visitant, si us plau, ingressa Recuperar contrasenya
AVAMET paisatges

Inforatge Riola

Dades diàries. Acumulats / Últims 30 dies disponibles

Data Temperatura (°C) Humitat rel. (%) Pressió rel. (hPa) Vent (km/h) Precipitació
Mínima Mitjana Màxima Amplitud
tèrmica
Mínima Mitjana Màxima Mínima Mitjana Màxima Predom. Mitjana Ràfega
màxima
Total
(mm)
Índex-n
Mínima Mitjana Màxima Mínima Mitjana Màxima n
0 a 1
P0 max
mm 5'
Dades mensuals acumulades fins l'últim dia disponible
05/2020 12,9 16,1 18,8 21,0 19,7 26,1 33,9 21,0 26 70 92 1.003 1.015 1.027   4,8 43,5 21,6
Dades anuals acumulades fins l'últim dia disponible
2020 3,1 11,4 18,8 15,5 10,4 20,4 33,9 30,8 22 74 95 1.000 1.020 1.035   4,7 74,0 416,8
Últims 30 dies disponibles
31-05-2020 16,6     21,6     25,9 9,3 50 73 88 1.011 1.014 1.016 SSE 7,4 38,6 0,0
30-05-2020 16,1     21,7     25,3 9,2 42 66 85 1.013 1.015 1.017 ENE 6,1 37,0 0,0
29-05-2020 15,4     21,9     27,2 11,8 40 64 87 1.013 1.017 1.022 E 7,6 37,0 0,0
28-05-2020 17,4     21,3     25,1 7,7 45 75 90 1.021 1.024 1.027 ENE 4,0 24,1 0,0
27-05-2020 15,8     21,1     26,1 10,3 52 70 84 1.025 1.026 1.027 NE 4,7 27,4 0,0
26-05-2020 15,9     21,1     25,8 9,9 ENE 2,9 20,9 0,0
25-05-2020 15,9     20,4     24,3 8,4 W 3,2 20,9 0,0
24-05-2020 18,6     21,7     24,4 5,8 NE 4,7 24,1 0,0
23-05-2020 17,8     22,9     28,2 10,4 ENE 4,8 24,1 0,0
22-05-2020 18,4     23,6     30,1 11,7 ENE 3,4 24,1 0,0
21-05-2020 16,3     22,7     29,1 12,8 W 3,9 27,4 0,0
20-05-2020 16,5     22,5     28,9 12,4 W 4,5 29,0 0,0
19-05-2020 15,0     22,4     29,4 14,4 E 4,8 25,7 0,0
18-05-2020 15,3     20,8     26,6 11,3 45 69 88 1.019 1.021 1.022 SW 5,0 30,6 0,0
17-05-2020 14,6     19,2     23,4 8,8 52 75 90 1.019 1.021 1.022 E 3,5 24,1 0,0
16-05-2020 15,5     17,8     22,4 6,9 64 81 92 1.015 1.017 1.020 W 2,1 19,3 2,2 0,20
15-05-2020 12,9     17,1     20,3 7,4 59 75 89 1.010 1.013 1.016 SW 3,9 22,5 0,6
14-05-2020 13,6     16,3     19,7 6,1 55 78 91 1.003 1.006 1.010 SW 4,8 29,0 16,6 0,20 1,50
13-05-2020 14,3     19,9     26,6 12,3 34 60 86 1.004 1.006 1.007 SW 6,6 29,0 0,0
12-05-2020 16,2     19,7     23,5 7,3 51 69 91 1.007 1.009 1.012 SW 4,5 29,0 1,0
11-05-2020 16,4     21,6     27,3 10,9 37 53 70 1.007 1.008 1.012 W 8,5 38,6 0,0
10-05-2020 16,1     20,3     25,9 9,8 32 65 92 1.004 1.006 1.009 SW 9,0 43,5 1,2
09-05-2020 15,8     19,7     23,8 8,0 65 81 92 1.009 1.012 1.016 SW 3,7 24,1 0,0
08-05-2020 15,5     19,8     22,8 7,3 65 80 90 1.015 1.017 1.019 NNE 3,5 27,4 0,0
07-05-2020 16,3     20,5     24,9 8,6 43 78 92 1.017 1.019 1.020 NE 2,9 20,9 0,0
06-05-2020 15,8     21,2     26,7 10,9 52 76 90 1.015 1.016 1.019 W 3,5 29,0 0,0
05-05-2020 16,1     21,3     29,3 13,2 43 76 91 1.013 1.014 1.016 SW 2,9 24,1 0,0
04-05-2020 15,4     19,7     24,2 8,8 66 81 91 1.014 1.016 1.018 W 2,9 19,3 0,0
03-05-2020 16,3     22,3     28,2 11,9 41 65 88 1.016 1.018 1.020 E 4,0 25,7 0,0
02-05-2020 18,8     25,6     33,9 15,1 26 51 73 1.015 1.018 1.020 SW 6,1 33,8 0,0
Últims 13 mesos disponibles
04/2020 8,5 12,5 17,8 16,0 15,9 20,3 27,3 18,8 50 79 93 1.006 1.016 1.026 SW 4,2 38,6 62,6
03/2020 5,4 10,5 16,3 14,3 10,8 18,7 24,3 18,9 44 73 92 1.007 1.018 1.027 SW 5,6 74,0 101,0
02/2020 5,5 9,9 15,5 14,7 14,8 20,7 27,0 21,5 49 73 88 1.014 1.026 1.033 SW 4,4 38,6 2,4
01/2020 3,1 7,5 14,4 11,5 10,4 16,1 20,8 17,7 58 76 93 1.016 1.024 1.031 SW 4,5 64,4 229,2
12/2019 7,8 11,1 18,0 14,6 14,1 18,3 25,9 18,1 50 72 91 1.003 1.019 1.033 SW 6,2 72,4 129,0
11/2019 6,1 11,6 21,2 15,5 16,1 20,1 28,2 22,1 48 60 81 999 1.011 1.019 SW 7,0 53,1 10,4
10/2019 11,1 15,9 19,5 20,0 16,1 25,6 35,4 24,3 47 72 90 1.008 1.017 1.022 SW 3,5 33,8 49,6
09/2019 14,9 19,8 22,6 23,9 22,2 28,4 34,6 19,7 0 73 86 0 984 1.024 S 4,3 48,3 78,2
08/2019 18,5 22,0 25,8 26,5 27,7 31,4 41,7 23,2 47 73 82 1.010 1.016 1.020 S 4,5 42,6 5,0
07/2019 20,2 22,0 24,7 26,8 28,2 31,2 37,5 17,3 50 71 82 1.006 1.014 1.022 SSE 5,1 45,0 2,6
06/2019 13,5 17,3 22,2 22,7 21,5 27,8 34,5 21,0 41 68 80 1.009 1.015 1.022 S 4,9 45,0 0,0
05/2019 9,3 13,9 20,7 19,0 16,9 23,7 33,3 24,0 48 70 87 1.005 1.015 1.024 S 5,3 50,0 5,6
04/2019 8,8 11,4 15,7 15,6 15,0 20,4 30,4 21,6 45 71 95 1.000 1.014 1.026 O 6,0 50,0 135,2
Tots els anys disponibles
2019 1,8 14,0 25,8 18,6 13,2 23,7 41,7 39,9 0 69 95 0 1.014 1.034 S 5,0 72,4 442,0
2018 1,4 14,2 26,9 18,5 8,5 23,3 37,1 35,7 39 71 94 994 1.017 1.036 SSO 4,6 61,1 718,2
Temperatura (°C)
Humitat relativa (%)
Velocitat del vent i ràfega màxima (km/h)
Direcció del vent (°)
Pressió (hPa)
Precipitació (mm)
Nota sobre les dades: s'avisa a l'usuari de la provisionalitat i no oficialitat d'aquestes dades
Logo AVAMET blanc
Web allotjada a Sollutia
Llicència de Creative CommonsLa web d'AVAMET i els seus continguts estan subjectes a una llicència de
Reconeixement - No Comercial - Compartir igual
Últimes estacions: Xodos - la Vega (Soci), la Vall d'Alba - Centre (Ajuntament soci), Chera (Ajuntament soci) - - -